Time;durP1;ratioP1;P1;durP2;ratioP2;P2;SDS_P1;SDS_P2;PMS_P1;PMS_P2;Temp;Humidity;BMP_temperature;BMP_pressure;BME280_temperature;BME280_humidity;BME280_pressure;Samples;Min_cycle;Max_cycle;Signal;HPM_P1;HPM_P2
2021/10/09 00:01:28;;;;;;;;;;;;;;;3.62;76.73;100467.81;112113;1195;61919;-83
2021/10/09 00:03:55;;;;;;;;;;;;;;;3.56;76.80;100467.02;112089;1195;61880;-82
2021/10/09 00:06:21;;;;;;;;;;;;;;;3.50;76.86;100464.64;112065;1195;67827;-82
2021/10/09 00:08:48;;;;;;;;;;;;;;;3.44;76.95;100462.45;112149;1196;61861;-83
2021/10/09 00:11:20;;;;;;;;;;;;;;;3.40;76.97;100463.90;112116;1196;63906;-82
2021/10/09 00:13:47;;;;;;;;;;;;;;;3.35;77.14;100461.34;112071;1195;61952;-82
2021/10/09 00:16:15;;;;;;;;;;;;;;;3.29;77.28;100459.15;112098;1196;61875;-82
2021/10/09 00:18:41;;;;;;;;;;;;;;;3.25;77.58;100459.73;112152;1195;66501;-82
2021/10/09 00:21:08;;;;;;;;;;;;;;;3.22;77.57;100454.32;112094;1196;61773;-82
2021/10/09 00:23:34;;;;;;;;;;;;;;;3.19;77.57;100455.41;112145;1195;61890;-83
2021/10/09 00:26:01;;;;;;;;;;;;;;;3.16;77.65;100455.98;112132;1195;61862;-82
2021/10/09 00:28:27;;;;;;;;;;;;;;;3.15;77.88;100455.29;112057;1195;61795;-84
2021/10/09 00:30:54;;;;;;;;;;;;;;;3.16;77.86;100455.45;112227;1196;61908;-83
2021/10/09 00:33:20;;;;;;;;;;;;;;;3.16;77.88;100453.17;112185;1196;61839;-81
2021/10/09 00:35:47;;;;;;;;;;;;;;;3.16;77.94;100453.52;112142;1196;61876;-82
2021/10/09 00:38:13;;;;;;;;;;;;;;;3.15;77.97;100451.77;112111;1195;62179;-83
2021/10/09 00:40:40;;;;;;;;;;;;;;;3.16;78.11;100451.59;112125;1195;61849;-81
2021/10/09 00:43:06;;;;;;;;;;;;;;;3.17;78.19;100452.27;112139;1195;61858;-82
2021/10/09 00:45:33;;;;;;;;;;;;;;;3.18;78.16;100451.20;112075;1196;61824;-83
2021/10/09 00:47:59;;;;;;;;;;;;;;;3.18;78.27;100449.46;112138;1196;61859;-83
2021/10/09 00:50:26;;;;;;;;;;;;;;;3.20;78.36;100452.59;112100;1195;62501;-82
2021/10/09 00:52:54;;;;;;;;;;;;;;;3.20;78.43;100453.29;112121;1196;61796;-83
2021/10/09 00:55:23;;;;;;;;;;;;;;;3.18;78.49;100447.16;112076;1195;66733;-82
2021/10/09 00:57:51;;;;;;;;;;;;;;;3.15;78.48;100444.41;112140;1196;61906;-81
2021/10/09 01:00:18;;;;;;;;;;;;;;;3.09;78.61;100447.63;111993;1196;63936;-81
2021/10/09 01:02:45;;;;;;;;;;;;;;;3.04;78.81;100450.16;111951;1195;61853;-82
2021/10/09 01:05:12;;;;;;;;;;;;;;;2.99;78.92;100446.89;112128;1195;61798;-83
2021/10/09 01:07:39;;;;;;;;;;;;;;;2.93;79.11;100447.14;112175;1195;61792;-83
2021/10/09 01:10:05;;;;;;;;;;;;;;;2.89;79.14;100444.73;112138;1196;61869;-82
2021/10/09 01:12:32;;;;;;;;;;;;;;;2.85;79.22;100444.09;112086;1196;65053;-83
2021/10/09 01:14:58;;;;;;;;;;;;;;;2.78;79.45;100442.77;112165;1195;61898;-84
2021/10/09 01:17:25;;;;;;;;;;;;;;;2.72;79.54;100444.05;112127;1195;61743;-84
2021/10/09 01:19:52;;;;;;;;;;;;;;;2.69;79.61;100441.11;112149;1196;66845;-83
2021/10/09 01:22:18;;;;;;;;;;;;;;;2.65;79.82;100439.23;112167;1195;61728;-85
2021/10/09 01:24:44;;;;;;;;;;;;;;;2.63;80.04;100438.02;112094;1195;61846;-85
2021/10/09 01:27:13;;;;;;;;;;;;;;;2.62;80.08;100436.64;112122;1196;61885;-85
2021/10/09 01:29:40;;;;;;;;;;;;;;;2.60;80.08;100436.13;112076;1195;61855;-84
2021/10/09 01:32:06;;;;;;;;;;;;;;;2.60;80.20;100437.52;112160;1195;61888;-82
2021/10/09 01:34:33;;;;;;;;;;;;;;;2.61;80.42;100435.58;112030;1195;61875;-84
2021/10/09 01:37:00;;;;;;;;;;;;;;;2.62;80.48;100437.50;112111;1196;65053;-83
2021/10/09 01:39:26;;;;;;;;;;;;;;;2.64;80.59;100437.83;112115;1196;61836;-84
2021/10/09 01:41:54;;;;;;;;;;;;;;;2.66;80.73;100435.52;112114;1196;61882;-82
2021/10/09 01:44:20;;;;;;;;;;;;;;;2.68;80.81;100431.83;112083;1195;67886;-83
2021/10/09 01:46:47;;;;;;;;;;;;;;;2.68;80.83;100430.25;112165;1196;61891;-83
2021/10/09 01:49:13;;;;;;;;;;;;;;;2.66;81.05;100430.26;112109;1196;63780;-82
2021/10/09 01:51:40;;;;;;;;;;;;;;;2.63;81.00;100430.30;112119;1195;61849;-83
2021/10/09 01:54:07;;;;;;;;;;;;;;;2.60;81.11;100432.43;112073;1195;61860;-82
2021/10/09 01:56:33;;;;;;;;;;;;;;;2.56;81.22;100436.52;112144;1195;61965;-82
2021/10/09 01:59:00;;;;;;;;;;;;;;;2.53;81.32;100436.72;112159;1195;61862;-85
2021/10/09 02:01:26;;;;;;;;;;;;;;;2.52;81.53;100438.32;112186;1195;62355;-89
2021/10/09 02:03:53;;;;;;;;;;;;;;;2.51;81.56;100437.98;112167;1195;61842;-87
2021/10/09 02:06:19;;;;;;;;;;;;;;;2.50;81.52;100439.40;112172;1195;61866;-88
2021/10/09 02:08:46;;;;;;;;;;;;;;;2.50;81.69;100439.05;112154;1196;61816;-83
2021/10/09 02:11:16;;;;;;;;;;;;;;;2.50;81.84;100435.88;112019;1196;61805;-83
2021/10/09 02:14:02;;;;;;;;;;;;;;;2.51;82.05;100436.05;112122;1196;64113;-84
2021/10/09 02:27:00;;;;;;;;;;;;;;;2.42;82.10;100441.41;111850;1196;64000;-86
2021/10/09 02:29:26;;;;;;;;;;;;;;;2.37;82.04;100440.94;112087;1196;61830;-85
2021/10/09 02:31:56;;;;;;;;;;;;;;;2.32;82.14;100440.64;112095;1196;61773;-86
2021/10/09 02:34:23;;;;;;;;;;;;;;;2.30;82.27;100439.77;112031;1195;66831;-91
2021/10/09 02:36:49;;;;;;;;;;;;;;;2.30;82.40;100442.06;111853;1196;61875;-89
2021/10/09 02:39:16;;;;;;;;;;;;;;;2.31;82.44;100443.63;112034;1195;64033;-90
2021/10/09 02:41:43;;;;;;;;;;;;;;;2.33;82.49;100447.12;112041;1195;61831;-88
2021/10/09 02:44:09;;;;;;;;;;;;;;;2.35;82.54;100443.40;112072;1195;61864;-88
2021/10/09 02:46:36;;;;;;;;;;;;;;;2.37;82.56;100446.70;112182;1196;61875;-89
2021/10/09 02:49:03;;;;;;;;;;;;;;;2.40;82.60;100446.17;112118;1196;61901;-89
2021/10/09 02:51:29;;;;;;;;;;;;;;;2.41;82.55;100450.02;112179;1196;62330;-88
2021/10/09 02:53:56;;;;;;;;;;;;;;;2.40;82.65;100448.09;112076;1195;62413;-88
2021/10/09 02:56:22;;;;;;;;;;;;;;;2.38;82.73;100448.46;112058;1195;61785;-88
2021/10/09 02:58:49;;;;;;;;;;;;;;;2.35;82.72;100447.44;112247;1195;61845;-88
2021/10/09 03:01:16;;;;;;;;;;;;;;;2.31;82.83;100442.39;112263;1195;67921;-88
2021/10/09 03:03:42;;;;;;;;;;;;;;;2.29;82.89;100445.05;112349;1196;61860;-88
2021/10/09 03:06:08;;;;;;;;;;;;;;;2.25;82.91;100444.56;112295;1195;61888;-89
2021/10/09 03:08:35;;;;;;;;;;;;;;;2.21;83.05;100450.56;112220;1196;61888;-89
2021/10/09 03:11:02;;;;;;;;;;;;;;;2.18;83.19;100453.92;112287;1196;61878;-88
2021/10/09 03:13:28;;;;;;;;;;;;;;;2.15;83.36;100455.70;112372;1196;61793;-90
2021/10/09 03:15:55;;;;;;;;;;;;;;;2.12;83.57;100459.58;112474;1196;61868;-88
2021/10/09 03:18:21;;;;;;;;;;;;;;;2.12;83.58;100458.18;112726;1195;61933;-89
2021/10/09 03:20:48;;;;;;;;;;;;;;;2.12;83.66;100453.45;113808;1195;61864;-88
2021/10/09 03:23:14;;;;;;;;;;;;;;;2.11;83.75;100451.70;112949;1195;66874;-90
2021/10/09 03:25:41;;;;;;;;;;;;;;;2.08;83.79;100454.19;113110;1195;61932;-88
2021/10/09 03:28:07;;;;;;;;;;;;;;;2.05;84.11;100461.39;113640;1195;61847;-89
2021/10/09 03:30:34;;;;;;;;;;;;;;;2.03;84.23;100458.26;112547;1195;61860;-90
2021/10/09 03:33:00;;;;;;;;;;;;;;;1.99;84.18;100459.69;112102;1195;61805;-91
2021/10/09 03:35:27;;;;;;;;;;;;;;;1.96;84.14;100457.10;112188;1196;62722;-89
2021/10/09 03:37:53;;;;;;;;;;;;;;;1.93;84.23;100457.65;112332;1195;61830;-88
2021/10/09 03:40:22;;;;;;;;;;;;;;;1.91;84.42;100460.29;112261;1196;64000;-89
2021/10/09 03:42:53;;;;;;;;;;;;;;;1.90;84.54;100463.27;112168;1195;61825;-88
2021/10/09 03:46:12;;;;;;;;;;;;;;;1.89;84.61;100465.39;112266;1196;61890;-88
2021/10/09 03:53:03;;;;;;;;;;;;;;;1.84;84.87;100470.33;112139;1195;62000;-91
2021/10/09 03:55:30;;;;;;;;;;;;;;;1.82;85.02;100468.07;112247;1196;61789;-91
2021/10/09 03:57:57;;;;;;;;;;;;;;;1.80;85.00;100466.52;112211;1196;61841;-90
2021/10/09 04:00:23;;;;;;;;;;;;;;;1.78;85.09;100467.58;112181;1196;65489;-90
2021/10/09 04:02:50;;;;;;;;;;;;;;;1.77;85.27;100465.30;112106;1195;61945;-90
2021/10/09 04:05:17;;;;;;;;;;;;;;;1.75;85.35;100469.16;112001;1196;62773;-89
2021/10/09 04:07:44;;;;;;;;;;;;;;;1.75;85.55;100471.45;111936;1196;61793;-90
2021/10/09 04:10:10;;;;;;;;;;;;;;;1.76;85.56;100475.47;112208;1196;61871;-90
2021/10/09 04:12:37;;;;;;;;;;;;;;;1.75;85.72;100479.33;112021;1196;61970;-90
2021/10/09 04:15:04;;;;;;;;;;;;;;;1.74;85.82;100477.42;112168;1195;61743;-89
2021/10/09 04:17:30;;;;;;;;;;;;;;;1.75;85.84;100480.04;112191;1195;64111;-89
2021/10/09 04:19:57;;;;;;;;;;;;;;;1.77;86.16;100480.20;112122;1196;61791;-89
2021/10/09 04:22:24;;;;;;;;;;;;;;;1.79;86.61;100478.61;112096;1195;61858;-90
2021/10/09 04:24:50;;;;;;;;;;;;;;;1.82;86.37;100475.78;112256;1195;65461;-89
2021/10/09 04:27:17;;;;;;;;;;;;;;;1.84;86.62;100479.80;112332;1196;61855;-89
2021/10/09 04:29:43;;;;;;;;;;;;;;;1.86;86.56;100477.84;112043;1195;61939;-89
2021/10/09 04:32:10;;;;;;;;;;;;;;;1.87;86.58;100473.29;112220;1195;61890;-89
2021/10/09 04:34:36;;;;;;;;;;;;;;;1.87;86.32;100478.19;112042;1195;61839;-90
2021/10/09 04:37:03;;;;;;;;;;;;;;;1.88;86.48;100477.13;112005;1196;61736;-89
2021/10/09 04:39:30;;;;;;;;;;;;;;;1.89;86.45;100481.33;112025;1196;61898;-90
2021/10/09 04:41:56;;;;;;;;;;;;;;;1.89;86.55;100480.98;112073;1196;62628;-89
2021/10/09 04:44:23;;;;;;;;;;;;;;;1.90;86.58;100480.63;112152;1195;61990;-90
2021/10/09 04:46:49;;;;;;;;;;;;;;;1.92;86.45;100484.83;112075;1195;61927;-89
2021/10/09 04:49:16;;;;;;;;;;;;;;;1.92;86.49;100487.10;112222;1195;66824;-89
2021/10/09 04:51:42;;;;;;;;;;;;;;;1.92;86.45;100489.55;112217;1196;61914;-89
2021/10/09 04:54:09;;;;;;;;;;;;;;;1.92;86.66;100491.13;112282;1196;64133;-90
2021/10/09 04:56:36;;;;;;;;;;;;;;;1.92;86.45;100491.99;112250;1196;61768;-89
2021/10/09 04:59:03;;;;;;;;;;;;;;;1.90;86.41;100490.95;112223;1196;61837;-86
2021/10/09 05:01:30;;;;;;;;;;;;;;;1.88;86.31;100492.55;112206;1196;65502;-86
2021/10/09 05:03:57;;;;;;;;;;;;;;;1.86;86.25;100489.59;112175;1196;61869;-86
2021/10/09 05:06:23;;;;;;;;;;;;;;;1.84;86.39;100493.29;112171;1196;63844;-86
2021/10/09 05:08:50;;;;;;;;;;;;;;;1.84;86.44;100496.44;112011;1196;61822;-86
2021/10/09 05:11:17;;;;;;;;;;;;;;;1.84;86.36;100497.67;112190;1195;61866;-86
2021/10/09 05:13:44;;;;;;;;;;;;;;;1.87;86.32;100498.35;112185;1195;66823;-88
2021/10/09 05:16:11;;;;;;;;;;;;;;;1.93;86.23;100498.65;112077;1195;61856;-87
2021/10/09 05:18:37;;;;;;;;;;;;;;;2.02;86.17;100499.81;112249;1196;64031;-87
2021/10/09 05:21:04;;;;;;;;;;;;;;;2.10;86.04;100505.70;112294;1195;61949;-86
2021/10/09 05:23:32;;;;;;;;;;;;;;;2.17;85.92;100510.02;112562;1195;61768;-87
2021/10/09 05:25:58;;;;;;;;;;;;;;;2.20;85.78;100513.16;112285;1195;66838;-87
2021/10/09 05:28:35;;;;;;;;;;;;;;;2.16;85.86;100512.67;112215;1195;61774;-87
2021/10/09 05:31:02;;;;;;;;;;;;;;;2.15;85.98;100510.76;112221;1196;64112;-86
2021/10/09 05:35:58;;;;;;;;;;;;;;;2.16;86.12;100511.80;112004;1196;61878;-86
2021/10/09 05:38:25;;;;;;;;;;;;;;;2.19;86.18;100510.18;112190;1195;61776;-86
2021/10/09 05:40:51;;;;;;;;;;;;;;;2.23;86.21;100511.20;112292;1196;61855;-86
2021/10/09 05:43:20;;;;;;;;;;;;;;;2.27;86.14;100511.53;112130;1196;63823;-86
2021/10/09 05:45:46;;;;;;;;;;;;;;;2.32;86.13;100514.13;112592;1195;61811;-89
2021/10/09 05:48:13;;;;;;;;;;;;;;;2.36;86.09;100513.55;112344;1195;61717;-89
2021/10/09 05:56:08;;;;;;;;;;;;;;;2.52;85.95;100513.58;112220;1196;63018;-89
2021/10/09 07:00:36;;;;;;;;;;;;;;;4.25;82.48;100560.38;112200;1196;61969;-87
2021/10/09 07:03:03;;;;;;;;;;;;;;;4.31;82.51;100561.69;112022;1196;63772;-92
2021/10/09 07:05:30;;;;;;;;;;;;;;;4.39;82.53;100562.98;112225;1196;61898;-91
2021/10/09 07:08:04;;;;;;;;;;;;;;;4.48;82.23;100563.17;112066;1195;61957;-92
2021/10/09 07:10:32;;;;;;;;;;;;;;;4.53;81.85;100566.09;112291;1196;67599;-92
2021/10/09 07:12:59;;;;;;;;;;;;;;;4.57;81.79;100566.02;111938;1197;62301;-91
2021/10/09 07:15:26;;;;;;;;;;;;;;;4.61;81.71;100564.37;112067;1196;64963;-89
2021/10/09 07:17:52;;;;;;;;;;;;;;;4.69;81.75;100568.80;112113;1197;62042;-91
2021/10/09 07:20:22;;;;;;;;;;;;;;;4.78;81.70;100570.57;112144;1196;61914;-90
2021/10/09 07:22:49;;;;;;;;;;;;;;;4.89;81.52;100569.85;112052;1195;65487;-90
2021/10/09 07:25:15;;;;;;;;;;;;;;;4.97;81.19;100571.30;112072;1196;61832;-90
2021/10/09 07:27:42;;;;;;;;;;;;;;;5.06;81.27;100571.48;112280;1196;64042;-89
2021/10/09 07:30:09;;;;;;;;;;;;;;;5.14;81.05;100571.85;112127;1196;61834;-91
2021/10/09 07:32:35;;;;;;;;;;;;;;;5.19;80.83;100569.64;112075;1197;61837;-91
2021/10/09 07:35:02;;;;;;;;;;;;;;;5.24;80.84;100570.96;112243;1195;74541;-90
2021/10/09 07:37:29;;;;;;;;;;;;;;;5.32;80.77;100567.78;111928;1197;61767;-89
2021/10/09 07:39:55;;;;;;;;;;;;;;;5.40;80.34;100565.52;112054;1196;62638;-90
2021/10/09 07:42:22;;;;;;;;;;;;;;;5.49;80.24;100570.60;111924;1195;61862;-89
2021/10/09 07:44:50;;;;;;;;;;;;;;;5.59;80.08;100566.34;112245;1195;61841;-91
2021/10/09 07:47:18;;;;;;;;;;;;;;;5.68;79.92;100566.86;112283;1196;66635;-91
2021/10/09 07:49:44;;;;;;;;;;;;;;;5.78;79.54;100563.80;112208;1196;61852;-91
2021/10/09 07:52:11;;;;;;;;;;;;;;;5.85;79.15;100560.50;112293;1197;64787;-92
2021/10/09 07:54:38;;;;;;;;;;;;;;;5.91;78.91;100568.66;112019;1196;61896;-92
2021/10/09 07:57:05;;;;;;;;;;;;;;;5.96;78.43;100565.55;112277;1195;61785;-88
2021/10/09 07:59:35;;;;;;;;;;;;;;;6.02;78.31;100564.73;112642;1196;66816;-91
2021/10/09 08:02:04;;;;;;;;;;;;;;;6.11;77.85;100565.05;112142;1196;61788;-90
2021/10/09 08:04:31;;;;;;;;;;;;;;;6.21;77.71;100564.63;112280;1197;62639;-90
2021/10/09 08:06:58;;;;;;;;;;;;;;;6.33;77.76;100566.64;112172;1195;61924;-90
2021/10/09 08:09:27;;;;;;;;;;;;;;;6.44;77.47;100564.42;112019;1196;61769;-90
2021/10/09 08:11:53;;;;;;;;;;;;;;;6.53;76.97;100561.92;112667;1196;65433;-89
2021/10/09 08:14:20;;;;;;;;;;;;;;;6.57;76.66;100560.40;112331;1196;61884;-90
2021/10/09 08:16:47;;;;;;;;;;;;;;;6.59;75.48;100563.34;112246;1195;61847;-90
2021/10/09 08:19:14;;;;;;;;;;;;;;;6.58;75.14;100556.84;112272;1196;61873;-91
2021/10/09 08:21:42;;;;;;;;;;;;;;;6.60;74.99;100558.21;112055;1196;61887;-89
2021/10/09 08:24:31;;;;;;;;;;;;;;;6.66;74.73;100560.17;112427;1196;66798;-91
2021/10/09 08:40:39;;;;;;;;;;;;;;;7.26;73.16;100553.08;112157;1196;61958;-90
2021/10/09 08:43:06;;;;;;;;;;;;;;;7.31;72.31;100550.45;112345;1196;63838;-88
2021/10/09 08:45:33;;;;;;;;;;;;;;;7.38;72.91;100545.67;112354;1194;61830;-83
2021/10/09 08:47:59;;;;;;;;;;;;;;;7.49;73.20;100549.93;112265;1195;61837;-86
2021/10/09 08:50:26;;;;;;;;;;;;;;;7.60;72.41;100549.09;112212;1196;65435;-84
2021/10/09 08:52:55;;;;;;;;;;;;;;;7.65;72.52;100544.87;112343;1196;61790;-84
2021/10/09 08:55:24;;;;;;;;;;;;;;;7.74;72.56;100546.55;112298;1195;62957;-84
2021/10/09 08:57:52;;;;;;;;;;;;;;;7.85;72.53;100548.67;112250;1196;61841;-84
2021/10/09 09:00:22;;;;;;;;;;;;;;;7.95;72.37;100545.89;112233;1195;61946;-86
2021/10/09 09:03:12;;;;;;;;;;;;;;;8.03;72.26;100542.97;112215;1195;66490;-86
2021/10/09 09:05:56;;;;;;;;;;;;;;;8.13;71.80;100547.78;112254;1196;61757;-85
2021/10/09 09:41:13;;;;;;;;;;;;;;;9.08;63.60;100552.96;112165;1196;61859;-80
2021/10/09 09:43:41;;;;;;;;;;;;;;;9.10;62.39;100556.23;112338;1195;65798;-84
2021/10/09 09:46:18;;;;;;;;;;;;;;;9.15;62.76;100553.04;112289;1196;61849;-83
2021/10/09 09:48:46;;;;;;;;;;;;;;;9.24;63.16;100552.00;112286;1196;62852;-83
2021/10/09 09:51:15;;;;;;;;;;;;;;;9.35;63.55;100546.45;112336;1196;61865;-82
2021/10/09 09:53:43;;;;;;;;;;;;;;;9.48;62.84;100544.38;112329;1195;62462;-83
2021/10/09 09:56:10;;;;;;;;;;;;;;;9.57;62.36;100544.05;112341;1196;65467;-84
2021/10/09 09:58:38;;;;;;;;;;;;;;;9.64;61.94;100540.59;112276;1196;61749;-83
2021/10/09 10:01:09;;;;;;;;;;;;;;;9.72;62.02;100539.92;112259;1195;64052;-84
2021/10/09 10:03:37;;;;;;;;;;;;;;;9.79;62.03;100541.42;112203;1196;61839;-84
2021/10/09 10:06:04;;;;;;;;;;;;;;;9.87;60.65;100544.13;112319;1196;61797;-84
2021/10/09 10:08:31;;;;;;;;;;;;;;;9.87;59.06;100537.91;112193;1196;65740;-82
2021/10/09 10:11:00;;;;;;;;;;;;;;;9.88;58.75;100541.23;112253;1196;61864;-86
2021/10/09 10:13:28;;;;;;;;;;;;;;;9.92;58.69;100541.30;112246;1196;62582;-82
2021/10/09 10:15:55;;;;;;;;;;;;;;;9.94;56.74;100545.47;112253;1195;61873;-82
2021/10/09 10:18:52;;;;;;;;;;;;;;;9.89;55.01;100545.64;112012;1195;61791;-82
2021/10/09 10:21:38;;;;;;;;;;;;;;;9.85;55.90;100539.23;112088;1195;67285;-83
2021/10/09 10:24:09;;;;;;;;;;;;;;;9.93;55.77;100535.21;112326;1196;61857;-83
2021/10/09 10:26:36;;;;;;;;;;;;;;;9.98;55.49;100535.70;112181;1196;62732;-84
2021/10/09 10:29:23;;;;;;;;;;;;;;;10.09;55.89;100535.09;112204;1195;62360;-82
2021/10/09 10:32:10;;;;;;;;;;;;;;;10.17;54.81;100534.39;112210;1196;61892;-84
2021/10/09 10:34:37;;;;;;;;;;;;;;;10.17;53.62;100538.34;112289;1195;66832;-83
2021/10/09 10:37:04;;;;;;;;;;;;;;;10.15;53.80;100535.23;112270;1196;61837;-83
2021/10/09 10:39:42;;;;;;;;;;;;;;;10.18;53.93;100532.79;112259;1196;63885;-84
2021/10/09 10:42:25;;;;;;;;;;;;;;;10.22;54.44;100526.90;112253;1196;61861;-83
2021/10/09 10:48:00;;;;;;;;;;;;;;;10.42;54.12;100522.05;112303;1195;65553;-82
2021/10/09 10:53:48;;;;;;;;;;;;;;;10.49;53.79;100518.56;112233;1195;62720;-82
2021/10/09 10:56:15;;;;;;;;;;;;;;;10.59;54.19;100516.36;112260;1196;61968;-82
2021/10/09 10:58:42;;;;;;;;;;;;;;;10.67;53.55;100513.00;112702;1195;61805;-84
2021/10/09 11:01:16;;;;;;;;;;;;;;;10.69;53.07;100515.77;113459;1196;65239;-84
2021/10/09 11:03:48;;;;;;;;;;;;;;;10.69;53.25;100506.85;112502;1195;61853;-83
2021/10/09 11:06:16;;;;;;;;;;;;;;;10.75;53.27;100504.30;112262;1196;62646;-84
2021/10/09 11:08:43;;;;;;;;;;;;;;;10.79;53.33;100507.52;112226;1196;61865;-84
2021/10/09 11:11:11;;;;;;;;;;;;;;;10.82;53.28;100505.77;112315;1195;61837;-84
2021/10/09 11:13:41;;;;;;;;;;;;;;;10.86;53.00;100509.35;112271;1195;65576;-85
2021/10/09 11:16:08;;;;;;;;;;;;;;;10.89;52.24;100509.20;112243;1196;61836;-83
2021/10/09 11:18:50;;;;;;;;;;;;;;;10.91;52.71;100512.32;112220;1196;63716;-83
2021/10/09 11:21:17;;;;;;;;;;;;;;;10.88;52.17;100506.42;112159;1196;61855;-84
2021/10/09 11:23:49;;;;;;;;;;;;;;;10.87;52.19;100499.68;112275;1197;61865;-83
2021/10/09 11:26:16;;;;;;;;;;;;;;;10.90;51.72;100502.76;112313;1195;66482;-83
2021/10/09 11:28:44;;;;;;;;;;;;;;;10.91;52.27;100501.83;112159;1197;61866;-83
2021/10/09 11:31:24;;;;;;;;;;;;;;;10.93;51.95;100506.70;112240;1196;62647;-83
2021/10/09 11:33:55;;;;;;;;;;;;;;;10.91;51.71;100493.98;112139;1196;61949;-83
2021/10/09 11:36:22;;;;;;;;;;;;;;;10.93;52.17;100491.93;112283;1195;62541;-83
2021/10/09 11:39:07;;;;;;;;;;;;;;;10.96;52.06;100495.34;112320;1196;65283;-83
2021/10/09 11:41:34;;;;;;;;;;;;;;;10.96;51.44;100492.89;112444;1195;61861;-83
2021/10/09 11:55:20;;;;;;;;;;;;;;;11.00;50.06;100483.09;111939;1196;61932;-84
2021/10/09 11:57:47;;;;;;;;;;;;;;;11.00;49.46;100480.27;112267;1196;65119;-83
2021/10/09 12:00:29;;;;;;;;;;;;;;;11.00;49.56;100481.33;112461;1196;61870;-83
2021/10/09 12:02:56;;;;;;;;;;;;;;;11.03;50.03;100483.52;112489;1196;61861;-84
2021/10/09 12:05:26;;;;;;;;;;;;;;;11.05;50.15;100482.52;112138;1196;66853;-83
2021/10/09 12:08:29;;;;;;;;;;;;;;;11.08;50.45;100474.73;112320;1196;61870;-83
2021/10/09 12:11:07;;;;;;;;;;;;;;;11.10;50.31;100472.16;111943;1196;62668;-84
2021/10/09 12:13:43;;;;;;;;;;;;;;;11.08;49.28;100469.20;112290;1195;61832;-84
2021/10/09 12:16:10;;;;;;;;;;;;;;;11.04;49.07;100461.41;112286;1195;61795;-84
2021/10/09 12:18:54;;;;;;;;;;;;;;;11.02;49.96;100459.02;112340;1196;61849;-84
2021/10/09 12:21:22;;;;;;;;;;;;;;;11.09;50.45;100455.46;112241;1196;61817;-85
2021/10/09 12:23:49;;;;;;;;;;;;;;;11.14;49.05;100457.73;112394;1195;64002;-85
2021/10/09 12:26:16;;;;;;;;;;;;;;;11.13;48.85;100452.09;112369;1195;61724;-84
2021/10/09 12:29:01;;;;;;;;;;;;;;;11.14;48.63;100450.81;112199;1195;61795;-84
2021/10/09 12:31:29;;;;;;;;;;;;;;;11.14;48.40;100452.79;112333;1195;65467;-83
2021/10/09 12:33:55;;;;;;;;;;;;;;;11.12;48.35;100452.35;112344;1196;61842;-84
2021/10/09 12:36:59;;;;;;;;;;;;;;;11.11;47.76;100452.52;112218;1195;61834;-84
2021/10/09 12:39:22;;;;;;;;;;;;;;;11.08;47.97;100453.92;112168;1196;61839;-83
2021/10/09 12:41:50;;;;;;;;;;;;;;;11.08;48.19;100450.73;112323;1196;61778;-85
2021/10/09 12:44:17;;;;;;;;;;;;;;;11.09;48.27;100448.71;111984;1196;66865;-85
2021/10/09 12:46:44;;;;;;;;;;;;;;;11.10;48.11;100444.76;112281;1196;61791;-85
2021/10/09 12:49:11;;;;;;;;;;;;;;;11.09;48.07;100446.61;112282;1197;64127;-85
2021/10/09 12:51:37;;;;;;;;;;;;;;;11.11;48.69;100443.67;112190;1195;61922;-84
2021/10/09 12:54:06;;;;;;;;;;;;;;;11.13;47.84;100446.21;112214;1195;61759;-85
2021/10/09 12:56:34;;;;;;;;;;;;;;;11.13;47.81;100443.91;112048;1196;67761;-84
2021/10/09 12:59:01;;;;;;;;;;;;;;;11.12;48.41;100439.88;112353;1196;67817;-85
2021/10/09 13:01:28;;;;;;;;;;;;;;;11.14;48.35;100438.54;112242;1196;63985;-86
2021/10/09 13:03:54;;;;;;;;;;;;;;;11.14;48.12;100441.89;112196;1195;61825;-86
2021/10/09 13:06:21;;;;;;;;;;;;;;;11.15;48.04;100438.69;112014;1195;61955;-85
2021/10/09 13:08:48;;;;;;;;;;;;;;;11.14;47.98;100438.20;112326;1195;66836;-84
2021/10/09 13:11:16;;;;;;;;;;;;;;;11.15;48.19;100440.46;112446;1196;61938;-84
2021/10/09 13:13:45;;;;;;;;;;;;;;;11.16;47.92;100439.86;112234;1195;64108;-83
2021/10/09 13:16:13;;;;;;;;;;;;;;;11.16;47.85;100441.29;112209;1196;61843;-85
2021/10/09 13:18:40;;;;;;;;;;;;;;;11.17;48.30;100443.39;112353;1195;61891;-81
2021/10/09 13:21:06;;;;;;;;;;;;;;;11.16;47.48;100441.98;112837;1196;66830;-91
2021/10/09 13:23:33;;;;;;;;;;;;;;;11.14;47.89;100434.98;112499;1196;61911;-93
2021/10/09 13:28:37;;;;;;;;;;;;;;;11.14;47.36;100432.14;112560;1193;61806;-86
2021/10/09 13:31:04;;;;;;;;;;;;;;;11.13;47.57;100426.98;112544;1193;61855;-88
2021/10/09 13:33:30;;;;;;;;;;;;;;;11.16;48.27;100418.33;112437;1193;66806;-85
2021/10/09 13:36:01;;;;;;;;;;;;;;;11.18;48.20;100420.91;113156;1193;61744;-92
2021/10/09 13:38:31;;;;;;;;;;;;;;;11.18;47.94;100422.48;112510;1193;64019;-88
2021/10/09 13:40:58;;;;;;;;;;;;;;;11.18;48.03;100420.36;112628;1193;61856;-91
2021/10/09 13:46:47;;;;;;;;;;;;;;;11.21;48.24;100419.70;114541;1174;67951;-90
2021/10/09 13:49:15;;;;;;;;;;;;;;;11.21;47.42;100423.95;112578;1193;61786;-85
2021/10/09 13:51:41;;;;;;;;;;;;;;;11.20;47.72;100424.55;112643;1193;61788;-85
2021/10/09 13:54:08;;;;;;;;;;;;;;;11.18;47.44;100419.14;112394;1194;61795;-85
2021/10/09 13:56:35;;;;;;;;;;;;;;;11.15;47.24;100409.14;112432;1195;63125;-84
2021/10/09 13:59:01;;;;;;;;;;;;;;;11.15;47.67;100414.10;112283;1195;66497;-82
2021/10/09 14:01:28;;;;;;;;;;;;;;;11.14;47.15;100413.62;112364;1195;61801;-83
2021/10/09 14:03:55;;;;;;;;;;;;;;;11.14;47.22;100410.80;112368;1196;63649;-83
2021/10/09 14:06:22;;;;;;;;;;;;;;;11.12;46.27;100417.84;112350;1195;61830;-83
2021/10/09 14:08:51;;;;;;;;;;;;;;;11.08;46.39;100412.84;112146;1196;61913;-83
2021/10/09 14:11:19;;;;;;;;;;;;;;;11.08;46.94;100412.84;112366;1195;67855;-85
2021/10/09 14:13:46;;;;;;;;;;;;;;;11.08;46.43;100417.67;112427;1196;61825;-84
2021/10/09 14:16:13;;;;;;;;;;;;;;;11.05;46.35;100413.16;112462;1195;61949;-83
2021/10/09 14:18:39;;;;;;;;;;;;;;;11.03;46.41;100416.08;112475;1195;61804;-86
2021/10/09 14:21:06;;;;;;;;;;;;;;;11.01;46.41;100419.76;112480;1195;61846;-84
2021/10/09 14:23:32;;;;;;;;;;;;;;;10.98;46.14;100415.98;112412;1195;61782;-85
2021/10/09 14:26:00;;;;;;;;;;;;;;;10.95;46.17;100413.60;112287;1195;61878;-84
2021/10/09 14:28:26;;;;;;;;;;;;;;;10.93;46.43;100412.46;112278;1195;63698;-85
2021/10/09 14:30:53;;;;;;;;;;;;;;;10.91;46.65;100410.22;112329;1194;61816;-85
2021/10/09 14:33:19;;;;;;;;;;;;;;;10.90;46.60;100412.23;112341;1195;61791;-85
2021/10/09 14:35:46;;;;;;;;;;;;;;;10.89;46.75;100406.61;112315;1195;61884;-85
2021/10/09 14:38:13;;;;;;;;;;;;;;;10.88;46.78;100408.95;112350;1195;61826;-85
2021/10/09 14:40:41;;;;;;;;;;;;;;;10.87;46.66;100405.79;112263;1196;64845;-85
2021/10/09 14:43:08;;;;;;;;;;;;;;;10.87;47.16;100402.80;112382;1194;61866;-85
2021/10/09 14:45:34;;;;;;;;;;;;;;;10.85;47.16;100406.79;112343;1194;61775;-85
2021/10/09 15:20:04;;;;;;;;;;;;;;;10.32;48.53;100402.55;112280;1196;63651;-86
2021/10/09 15:22:31;;;;;;;;;;;;;;;10.25;48.66;100404.25;112363;1194;61804;-83
2021/10/09 15:24:58;;;;;;;;;;;;;;;10.19;48.92;100401.85;112292;1194;61862;-84
2021/10/09 15:27:26;;;;;;;;;;;;;;;10.12;48.71;100404.27;112305;1196;67818;-84
2021/10/09 15:29:53;;;;;;;;;;;;;;;10.06;48.87;100400.42;112262;1196;61852;-84
2021/10/09 15:32:19;;;;;;;;;;;;;;;10.01;48.68;100404.36;112383;1196;61884;-85
2021/10/09 15:34:46;;;;;;;;;;;;;;;9.97;48.59;100405.09;112505;1196;61769;-85
2021/10/09 15:37:12;;;;;;;;;;;;;;;9.93;49.12;100403.86;112461;1195;61862;-86
2021/10/09 15:39:40;;;;;;;;;;;;;;;9.85;49.34;100404.88;112269;1195;61858;-85
2021/10/09 15:42:08;;;;;;;;;;;;;;;9.76;49.60;100407.17;112275;1196;61855;-85
2021/10/09 15:44:36;;;;;;;;;;;;;;;9.67;49.65;100408.59;112292;1196;62674;-85
2021/10/09 15:47:02;;;;;;;;;;;;;;;9.60;49.86;100411.38;112311;1195;61893;-85